Time;durP1;ratioP1;P1;durP2;ratioP2;P2;SDS_P1;SDS_P2;PMS_P1;PMS_P2;Temp;Humidity;BMP_temperature;BMP_pressure;BME280_temperature;BME280_humidity;BME280_pressure;Samples;Min_cycle;Max_cycle;Signal;HPM_P1;HPM_P2
2023/09/29 00:00:20;;;;;;;14.55;7.40;;;;;;;18.92;51.72;99743.63;4350281;32;33792;-85
2023/09/29 00:02:50;;;;;;;10.52;6.80;;;;;;;18.87;51.71;99737.56;4352755;32;33773;-86
2023/09/29 00:05:17;;;;;;;10.45;6.43;;;;;;;18.83;51.81;99739.34;4369352;32;33560;-85
2023/09/29 00:07:46;;;;;;;11.88;7.12;;;;;;;18.82;51.85;99734.09;4346195;32;34269;-84
2023/09/29 00:10:16;;;;;;;11.93;7.05;;;;;;;18.82;52.17;99749.84;4348540;32;33740;-84
2023/09/29 00:12:45;;;;;;;11.68;6.55;;;;;;;18.84;52.12;99738.44;4361262;32;33794;-85
2023/09/29 00:15:15;;;;;;;10.02;6.95;;;;;;;18.77;52.31;99741.16;4362698;32;35039;-85
2023/09/29 00:17:43;;;;;;;10.82;6.60;;;;;;;18.84;52.20;99743.69;4356257;32;34776;-85
2023/09/29 00:20:33;;;;;;;9.30;6.62;;;;;;;18.83;52.07;99735.84;4358813;32;33704;-85
2023/09/29 00:23:01;;;;;;;11.85;7.22;;;;;;;18.72;52.60;99746.47;4353489;32;34866;-85
2023/09/29 00:25:28;;;;;;;11.25;7.15;;;;;;;18.83;52.71;99747.22;4357430;32;34974;-85
2023/09/29 00:27:56;;;;;;;11.73;6.95;;;;;;;18.80;52.78;99747.25;4356669;32;33795;-86
2023/09/29 00:30:24;;;;;;;12.50;7.07;;;;;;;18.90;52.65;99735.75;4347522;32;33484;-83
2023/09/29 00:32:53;;;;;;;11.00;6.40;;;;;;;18.84;52.87;99746.31;4346296;32;33505;-85
2023/09/29 00:35:24;;;;;;;9.60;6.20;;;;;;;18.81;52.50;99735.84;4346733;32;34052;-85
2023/09/29 00:37:54;;;;;;;14.70;7.40;;;;;;;18.69;52.75;99738.59;4353715;32;34431;-83
2023/09/29 00:40:22;;;;;;;10.85;7.20;;;;;;;18.73;52.52;99732.44;4349278;32;34394;-85
2023/09/29 00:42:49;;;;;;;14.02;7.57;;;;;;;18.69;52.51;99731.56;4350191;32;33689;-86
2023/09/29 00:45:20;;;;;;;13.93;6.78;;;;;;;18.75;52.32;99738.53;4356437;32;33429;-84
2023/09/29 00:47:49;;;;;;;10.20;6.12;;;;;;;18.70;52.14;99729.81;4350229;32;35023;-85
2023/09/29 00:50:19;;;;;;;11.95;6.95;;;;;;;18.73;51.91;99721.94;4345831;32;34348;-84
2023/09/29 00:52:52;;;;;;;9.75;6.60;;;;;;;18.75;51.92;99720.16;4356447;32;33763;-85
2023/09/29 00:55:26;;;;;;;12.18;6.87;;;;;;;18.75;52.08;99725.41;4358967;32;34615;-84
2023/09/29 00:57:57;;;;;;;12.90;7.28;;;;;;;18.78;52.01;99722.75;4359323;32;33870;-84
2023/09/29 01:02:56;;;;;;;11.20;6.93;;;;;;;18.66;52.11;99722.88;4347726;32;33577;-85
2023/09/29 01:05:24;;;;;;;9.90;6.78;;;;;;;18.70;52.02;99730.72;4357761;32;34409;-84
2023/09/29 01:07:51;;;;;;;10.95;7.05;;;;;;;18.65;52.13;99726.37;4351084;32;33991;-85
2023/09/29 01:10:19;;;;;;;11.02;7.43;;;;;;;18.64;52.57;99724.66;4357526;32;34025;-86
2023/09/29 01:12:48;;;;;;;12.98;7.75;;;;;;;18.35;54.12;99731.06;4351145;32;34462;-86
2023/09/29 01:15:17;;;;;;;12.05;7.20;;;;;;;18.19;54.42;99732.97;4349986;32;35091;-85
2023/09/29 01:17:45;;;;;;;11.10;7.22;;;;;;;18.32;54.08;99730.22;4357116;32;33674;-85
2023/09/29 01:20:24;;;;;;;12.18;7.25;;;;;;;18.20;54.39;99725.97;4350280;32;34383;-85
2023/09/29 01:22:52;;;;;;;12.30;7.12;;;;;;;18.28;54.08;99726.75;4353365;32;34708;-86
2023/09/29 01:25:20;;;;;;;10.43;7.32;;;;;;;18.34;53.61;99726.72;4351962;32;34119;-86
2023/09/29 01:27:49;;;;;;;10.98;7.32;;;;;;;18.32;53.71;99733.72;4356358;32;34280;-87
2023/09/29 01:30:18;;;;;;;13.27;7.85;;;;;;;18.21;54.01;99725.94;4351754;32;34555;-85
2023/09/29 01:32:48;;;;;;;10.60;7.03;;;;;;;18.31;53.77;99729.34;4347292;32;34441;-84
2023/09/29 01:35:17;;;;;;;12.18;6.82;;;;;;;18.21;53.79;99725.06;4356136;32;34622;-85
2023/09/29 01:37:46;;;;;;;11.25;7.72;;;;;;;18.35;53.71;99723.19;4356697;32;34313;-85
2023/09/29 01:40:14;;;;;;;12.23;7.10;;;;;;;18.23;53.73;99716.31;4351569;32;33204;-85
2023/09/29 01:42:43;;;;;;;11.95;6.95;;;;;;;18.20;53.96;99724.19;4351008;32;33263;-84
2023/09/29 01:45:11;;;;;;;9.73;7.62;;;;;;;18.24;54.19;99719.78;4349797;32;32911;-85
2023/09/29 01:47:40;;;;;;;12.57;7.32;;;;;;;18.24;54.29;99725.91;4357934;32;34204;-85
2023/09/29 01:50:08;;;;;;;11.73;7.40;;;;;;;18.12;54.38;99719.91;4351825;32;33494;-86
2023/09/29 01:52:35;;;;;;;11.65;7.20;;;;;;;18.05;54.22;99718.22;4349361;32;34623;-86
2023/09/29 01:55:09;;;;;;;12.02;7.20;;;;;;;18.08;54.23;99718.22;4354323;32;34188;-84
2023/09/29 01:57:38;;;;;;;13.82;7.97;;;;;;;18.08;54.03;99720.84;4356063;32;34026;-84
2023/09/29 02:00:08;;;;;;;13.00;7.93;;;;;;;18.11;53.79;99720.81;4356159;32;34424;-84
2023/09/29 02:02:39;;;;;;;10.40;7.00;;;;;;;18.09;54.05;99720.81;4356134;32;33568;-85
2023/09/29 02:05:10;;;;;;;11.52;8.10;;;;;;;18.12;54.04;99720.78;4351436;32;35081;-85
2023/09/29 02:07:39;;;;;;;11.00;7.70;;;;;;;18.24;53.71;99717.16;4359281;32;34156;-85
2023/09/29 02:10:10;;;;;;;12.48;7.40;;;;;;;18.19;54.29;99726.84;4347392;32;33606;-85
2023/09/29 02:12:49;;;;;;;13.50;7.80;;;;;;;18.08;54.40;99715.59;4349242;32;33830;-85
2023/09/29 02:15:18;;;;;;;12.18;7.65;;;;;;;17.98;54.84;99714.78;4357484;32;33918;-85
2023/09/29 02:17:48;;;;;;;11.25;7.97;;;;;;;18.10;54.32;99713.81;4358663;32;34156;-85
2023/09/29 02:20:18;;;;;;;9.75;7.45;;;;;;;17.97;54.44;99715.66;4357779;32;34052;-85
2023/09/29 02:22:46;;;;;;;14.13;7.97;;;;;;;18.07;54.27;99722.59;4349770;32;34490;-85
2023/09/29 02:25:15;;;;;;;14.77;8.32;;;;;;;18.01;54.35;99721.75;4355237;32;34114;-84
2023/09/29 02:27:43;;;;;;;10.82;7.53;;;;;;;18.05;53.99;99723.47;4355460;32;34162;-85
2023/09/29 02:30:12;;;;;;;11.12;7.30;;;;;;;17.99;54.19;99719.13;4351843;32;33656;-83
2023/09/29 02:32:41;;;;;;;11.45;7.30;;;;;;;18.04;54.01;99721.75;4359031;32;32580;-84
2023/09/29 02:35:10;;;;;;;21.02;7.75;;;;;;;17.87;54.54;99716.63;4356938;32;34257;-84
2023/09/29 02:37:38;;;;;;;12.02;7.32;;;;;;;17.87;54.64;99720.09;4356721;32;33853;-84
2023/09/29 02:40:11;;;;;;;11.12;7.43;;;;;;;17.98;54.23;99715.66;4351250;32;33542;-85
2023/09/29 02:42:39;;;;;;;11.07;7.57;;;;;;;17.90;54.28;99720.09;4346343;32;33753;-85
2023/09/29 02:45:07;;;;;;;12.18;7.93;;;;;;;17.85;54.66;99721.03;4351004;32;34236;-85
2023/09/29 02:47:36;;;;;;;12.27;7.85;;;;;;;17.90;54.71;99722.72;4348814;32;34299;-85
2023/09/29 02:50:04;;;;;;;13.70;8.13;;;;;;;17.93;54.90;99724.44;4351658;32;34197;-84
2023/09/29 02:52:32;;;;;;;11.65;7.62;;;;;;;17.87;55.03;99720.09;4348495;32;33085;-83
2023/09/29 02:54:59;;;;;;;14.07;7.68;;;;;;;17.86;54.84;99715.75;4356124;32;33902;-84
2023/09/29 02:57:28;;;;;;;11.45;7.10;;;;;;;17.78;54.98;99714.94;4355111;32;33459;-85
2023/09/29 03:00:00;;;;;;;12.95;7.57;;;;;;;17.91;54.64;99721.81;4346241;32;33591;-86
2023/09/29 03:02:28;;;;;;;11.30;8.40;;;;;;;17.91;54.68;99713.09;4346499;32;33495;-85
2023/09/29 03:04:56;;;;;;;10.07;7.20;;;;;;;17.87;54.56;99708.75;4352969;32;33800;-84
2023/09/29 03:07:23;;;;;;;13.98;7.68;;;;;;;17.87;54.59;99709.63;4351696;32;34983;-85
2023/09/29 03:09:51;;;;;;;15.40;8.00;;;;;;;17.77;55.08;99713.22;4359106;32;34357;-85
2023/09/29 03:12:18;;;;;;;12.65;7.95;;;;;;;17.86;54.45;99713.13;4352973;32;33421;-83
2023/09/29 03:14:46;;;;;;;11.60;7.90;;;;;;;17.83;54.74;99707.91;4351231;32;35173;-84
2023/09/29 03:17:14;;;;;;;10.25;7.35;;;;;;;17.82;54.72;99710.56;4345424;32;34139;-86
2023/09/29 03:19:42;;;;;;;11.00;7.87;;;;;;;17.94;54.01;99710.44;4354944;32;32871;-83
2023/09/29 03:22:13;;;;;;;11.68;7.55;;;;;;;17.97;53.91;99707.81;4351464;32;33664;-86
2023/09/29 03:24:42;;;;;;;13.68;8.50;;;;;;;17.97;53.91;99713.91;4358658;32;34084;-85
2023/09/29 03:27:10;;;;;;;11.98;7.65;;;;;;;17.93;54.07;99717.44;4356199;32;34198;-85
2023/09/29 03:29:37;;;;;;;12.98;8.50;;;;;;;17.94;54.17;99713.94;4351091;32;32171;-84
2023/09/29 03:32:08;;;;;;;12.15;7.37;;;;;;;17.70;55.16;99719.34;4351722;32;34207;-88
2023/09/29 03:34:35;;;;;;;11.20;8.20;;;;;;;17.85;54.94;99713.16;4345678;32;33858;-83
2023/09/29 03:37:03;;;;;;;12.37;8.45;;;;;;;17.81;55.29;99717.56;4351151;32;34001;-86
2023/09/29 03:39:33;;;;;;;10.68;7.37;;;;;;;17.83;55.02;99717.53;4357273;32;33592;-84
2023/09/29 03:42:00;;;;;;;12.82;7.97;;;;;;;17.87;54.72;99716.63;4345676;32;33697;-84
2023/09/29 03:44:28;;;;;;;11.52;7.60;;;;;;;17.84;54.76;99720.16;4349782;32;35146;-83
2023/09/29 03:46:56;;;;;;;12.93;8.02;;;;;;;17.89;54.71;99720.97;4351003;32;35077;-84
2023/09/29 03:49:23;;;;;;;12.75;7.40;;;;;;;17.85;54.45;99721.88;4348782;32;34894;-84
2023/09/29 03:51:51;;;;;;;12.80;7.75;;;;;;;17.75;54.85;99720.22;4345677;32;34836;-84
2023/09/29 03:54:19;;;;;;;12.18;8.15;;;;;;;17.82;55.03;99718.41;4347737;32;33848;-84
2023/09/29 03:56:46;;;;;;;11.93;8.27;;;;;;;17.67;55.18;99716.75;4350213;32;34212;-85
2023/09/29 03:59:14;;;;;;;10.90;7.85;;;;;;;17.59;55.53;99726.41;4358193;32;33402;-85
2023/09/29 04:01:41;;;;;;;14.77;8.82;;;;;;;17.52;55.64;99728.22;4353000;32;33496;-84
2023/09/29 04:04:09;;;;;;;11.18;7.93;;;;;;;17.63;55.56;99728.13;4345724;32;34182;-84
2023/09/29 04:06:37;;;;;;;15.23;8.38;;;;;;;17.63;55.26;99728.13;4350930;32;34139;-91
2023/09/29 04:09:04;;;;;;;11.45;7.93;;;;;;;17.57;55.32;99726.41;4351370;32;34535;-83
2023/09/29 04:11:32;;;;;;;12.10;8.07;;;;;;;17.57;55.37;99726.41;4347273;32;34879;-85
2023/09/29 04:14:00;;;;;;;12.25;9.13;;;;;;;17.54;55.41;99720.31;4355520;32;35134;-85
2023/09/29 04:16:28;;;;;;;10.88;8.23;;;;;;;17.51;55.47;99727.34;4354412;32;34863;-85
2023/09/29 04:18:55;;;;;;;10.32;7.87;;;;;;;17.56;55.41;99724.69;4356006;32;33257;-85
2023/09/29 04:21:23;;;;;;;11.40;8.75;;;;;;;17.56;55.49;99729.06;4354788;32;33971;-85
2023/09/29 04:23:51;;;;;;;12.15;8.15;;;;;;;17.59;55.44;99724.66;4344000;32;35126;-84
2023/09/29 04:26:20;;;;;;;15.98;8.75;;;;;;;17.55;55.66;99728.19;4354411;32;32435;-85
2023/09/29 04:28:49;;;;;;;12.98;8.23;;;;;;;17.56;55.55;99729.06;4355557;32;36030;-85
2023/09/29 04:31:18;;;;;;;12.40;8.13;;;;;;;17.48;55.86;99735.22;4368629;32;34039;-85
2023/09/29 04:33:46;;;;;;;12.77;8.07;;;;;;;17.50;55.98;99724.72;4358123;32;34921;-85
2023/09/29 04:36:13;;;;;;;13.43;8.18;;;;;;;17.25;56.76;99729.25;4351186;32;34181;-84
2023/09/29 04:38:41;;;;;;;11.50;8.02;;;;;;;17.46;56.35;99734.37;4348608;32;33469;-85
2023/09/29 04:41:09;;;;;;;11.20;8.15;;;;;;;17.46;56.11;99737.00;4345070;32;33836;-85
2023/09/29 04:43:36;;;;;;;11.18;8.98;;;;;;;17.57;55.67;99730.78;4357612;32;33630;-85
2023/09/29 04:46:04;;;;;;;12.35;8.38;;;;;;;17.50;55.75;99736.09;4353972;32;34542;-86
2023/09/29 04:48:31;;;;;;;13.57;8.82;;;;;;;17.40;56.18;99734.41;4348666;32;33432;-83
2023/09/29 04:51:00;;;;;;;15.52;8.27;;;;;;;17.51;55.63;99742.19;4344912;32;34300;-84
2023/09/29 04:53:28;;;;;;;12.25;8.50;;;;;;;17.54;55.54;99746.53;4354871;32;34402;-84
2023/09/29 04:55:59;;;;;;;16.52;9.60;;;;;;;17.48;55.78;99750.94;4350193;32;33729;-84
2023/09/29 04:58:26;;;;;;;12.02;8.30;;;;;;;17.37;56.05;99749.28;4352944;32;33539;-88
2023/09/29 05:00:54;;;;;;;14.48;8.95;;;;;;;17.48;55.76;99747.47;4354951;32;34782;-85
2023/09/29 05:03:22;;;;;;;13.88;8.18;;;;;;;17.51;55.82;99750.94;4351595;32;33971;-84
2023/09/29 05:05:49;;;;;;;10.82;8.52;;;;;;;17.44;56.26;99754.47;4357899;32;33752;-83
2023/09/29 05:08:17;;;;;;;11.93;8.50;;;;;;;17.39;56.49;99753.62;4356329;32;33769;-89
2023/09/29 05:10:45;;;;;;;12.35;9.18;;;;;;;17.39;56.53;99748.41;4348112;32;34441;-85
2023/09/29 05:13:12;;;;;;;10.80;8.43;;;;;;;17.49;56.61;99752.69;4358289;32;34262;-86
2023/09/29 05:15:41;;;;;;;12.60;8.55;;;;;;;17.55;56.46;99753.53;4350162;32;35049;-85
2023/09/29 05:18:09;;;;;;;10.38;8.32;;;;;;;17.75;55.92;99752.53;4354773;32;33350;-85
2023/09/29 05:20:36;;;;;;;10.52;8.43;;;;;;;17.60;56.78;99750.00;4347724;32;33772;-87
2023/09/29 05:23:04;;;;;;;13.70;8.93;;;;;;;17.75;56.49;99751.69;4359133;32;35405;-85
2023/09/29 05:25:31;;;;;;;13.90;8.27;;;;;;;17.92;56.04;99755.06;4359324;32;34199;-85
2023/09/29 05:27:59;;;;;;;14.25;8.68;;;;;;;17.99;55.63;99756.75;4356749;32;33847;-85
2023/09/29 05:30:26;;;;;;;12.98;7.45;;;;;;;18.02;55.35;99757.59;4358931;32;34743;-84
2023/09/29 05:32:54;;;;;;;10.88;8.20;;;;;;;17.99;56.02;99755.88;4354779;32;34116;-85
2023/09/29 05:35:22;;;;;;;11.25;8.38;;;;;;;17.99;56.16;99762.00;4356258;32;34054;-87
2023/09/29 05:37:50;;;;;;;11.98;8.10;;;;;;;18.15;55.63;99760.13;4353836;32;33449;-85
2023/09/29 05:40:18;;;;;;;10.63;8.55;;;;;;;18.12;55.53;99760.16;4352811;32;33886;-85
2023/09/29 05:42:46;;;;;;;12.13;8.45;;;;;;;18.17;56.46;99758.34;4357684;32;34285;-86
2023/09/29 05:45:20;;;;;;;10.85;8.10;;;;;;;18.26;55.87;99762.66;4359898;32;34276;-85
2023/09/29 05:47:51;;;;;;;11.90;7.50;;;;;;;18.32;54.27;99761.72;4360684;32;33428;-85
2023/09/29 05:50:19;;;;;;;12.20;7.03;;;;;;;18.57;53.07;99765.00;4348103;32;34787;-84
2023/09/29 05:52:47;;;;;;;19.12;7.80;;;;;;;18.66;52.53;99760.50;4352822;32;34894;-85
2023/09/29 05:55:35;;;;;;;12.93;7.90;;;;;;;18.60;53.19;99762.31;4346895;32;34169;-85
2023/09/29 05:58:03;;;;;;;11.23;7.28;;;;;;;18.83;52.57;99763.00;4345857;32;33221;-85
2023/09/29 06:00:30;;;;;;;14.07;7.45;;;;;;;18.91;52.79;99761.12;4346101;32;34791;-85
2023/09/29 06:02:59;;;;;;;11.98;7.40;;;;;;;19.22;52.32;99760.75;4345367;32;34163;-84
2023/09/29 06:05:28;;;;;;;15.75;8.52;;;;;;;19.01;52.13;99764.50;4355052;32;34811;-85
2023/09/29 06:07:56;;;;;;;15.18;7.82;;;;;;;19.01;52.39;99761.00;4351453;32;33692;-84
2023/09/29 06:10:25;;;;;;;11.65;7.30;;;;;;;19.02;52.11;99778.53;4359192;32;35109;-85
2023/09/29 06:12:53;;;;;;;10.80;7.57;;;;;;;19.28;51.77;99765.94;4360201;32;35486;-83
2023/09/29 06:15:21;;;;;;;12.93;7.78;;;;;;;19.24;51.87;99766.84;4346286;33;33920;-85
2023/09/29 06:17:49;;;;;;;11.18;7.07;;;;;;;19.40;52.02;99765.78;4354565;32;34598;-84
2023/09/29 06:20:18;;;;;;;11.95;7.30;;;;;;;19.47;51.03;99766.53;4350331;32;33838;-85
2023/09/29 06:22:46;;;;;;;14.23;7.82;;;;;;;19.19;51.50;99773.94;4346040;32;33917;-84
2023/09/29 06:25:14;;;;;;;13.70;7.95;;;;;;;19.41;51.75;99777.16;4346864;32;35741;-83
2023/09/29 06:27:41;;;;;;;11.63;7.72;;;;;;;19.58;51.52;99771.66;4346104;32;34276;-84
2023/09/29 06:30:09;;;;;;;11.25;7.28;;;;;;;19.68;51.65;99773.31;4347896;32;33795;-84
2023/09/29 06:32:37;;;;;;;13.02;7.22;;;;;;;19.65;50.64;99770.72;4353933;32;34266;-84
2023/09/29 06:35:05;;;;;;;11.23;7.53;;;;;;;19.88;51.25;99773.00;4345654;32;34283;-84
2023/09/29 06:37:32;;;;;;;10.65;6.97;;;;;;;20.14;49.64;99781.34;4346015;32;34090;-83
2023/09/29 06:40:00;;;;;;;12.13;7.12;;;;;;;19.77;50.58;99785.44;4350678;32;33716;-84
2023/09/29 06:42:27;;;;;;;14.20;7.93;;;;;;;19.99;49.90;99778.97;4346793;32;34693;-85
2023/09/29 06:44:55;;;;;;;12.70;7.28;;;;;;;20.08;50.19;99780.59;4357112;32;35019;-85
2023/09/29 06:47:23;;;;;;;12.13;7.10;;;;;;;20.33;49.63;99779.28;4352632;32;33818;-86
2023/09/29 06:49:50;;;;;;;14.48;7.65;;;;;;;20.30;48.94;99783.72;4347046;32;34793;-83
2023/09/29 06:52:18;;;;;;;13.35;7.45;;;;;;;20.42;49.60;99781.75;4353308;32;35079;-83
2023/09/29 06:54:45;;;;;;;13.43;7.35;;;;;;;20.13;49.96;99778.75;4357003;32;34853;-89
2023/09/29 06:57:13;;;;;;;11.02;7.28;;;;;;;20.00;49.42;99783.34;4358054;32;33898;-90
2023/09/29 06:59:41;;;;;;;11.25;6.40;;;;;;;20.26;50.34;99792.56;4356792;32;33479;-84
2023/09/29 07:02:08;;;;;;;11.65;6.85;;;;;;;20.20;48.93;99790.91;4365606;32;33979;-85
2023/09/29 07:04:36;;;;;;;12.80;6.60;;;;;;;20.50;47.71;99794.84;4350840;32;34201;-85
2023/09/29 07:07:04;;;;;;;12.15;6.93;;;;;;;20.35;48.73;99798.56;4360292;32;33302;-82
2023/09/29 07:09:32;;;;;;;14.60;7.07;;;;;;;20.53;49.23;99797.41;4360498;32;33855;-82
2023/09/29 07:11:59;;;;;;;11.73;6.85;;;;;;;20.40;49.45;99809.00;4357878;32;33365;-81
2023/09/29 07:14:27;;;;;;;11.65;7.47;;;;;;;20.82;48.30;99812.69;4347491;32;34398;-81
2023/09/29 07:16:55;;;;;;;13.30;7.53;;;;;;;20.96;48.20;99815.06;4360490;32;33786;-83
2023/09/29 07:19:22;;;;;;;12.93;7.03;;;;;;;20.95;48.61;99815.97;4352126;32;34815;-86
2023/09/29 07:21:52;;;;;;;12.90;7.43;;;;;;;20.90;47.75;99810.75;4348972;32;34007;-85
2023/09/29 07:24:20;;;;;;;13.05;7.35;;;;;;;20.87;47.85;99808.22;4360048;32;34395;-84
2023/09/29 07:26:49;;;;;;;11.20;6.57;;;;;;;20.46;47.75;99814.19;4346016;32;33829;-84
2023/09/29 07:29:17;;;;;;;12.32;7.35;;;;;;;20.68;48.20;99809.41;4356193;32;33927;-85
2023/09/29 07:31:47;;;;;;;11.52;7.40;;;;;;;20.88;48.30;99812.56;4351140;32;34296;-85
2023/09/29 07:34:17;;;;;;;13.27;7.07;;;;;;;20.83;47.72;99814.41;4345910;33;33907;-85
2023/09/29 07:36:45;;;;;;;14.87;7.40;;;;;;;20.96;47.16;99803.66;4345813;33;33370;-88
2023/09/29 07:39:13;;;;;;;12.40;7.65;;;;;;;21.10;47.33;99813.03;4356551;32;33646;-86
2023/09/29 07:41:41;;;;;;;13.70;7.15;;;;;;;20.84;48.21;99812.66;4360962;32;34046;-91
2023/09/29 07:44:09;;;;;;;13.68;8.43;;;;;;;21.34;47.56;99811.69;4360678;32;34166;-83
2023/09/29 07:46:38;;;;;;;16.40;8.32;;;;;;;20.98;47.88;99815.88;4360067;32;33536;-86
2023/09/29 07:49:06;;;;;;;14.52;7.10;;;;;;;21.59;46.06;99821.69;4354047;32;33672;-85
2023/09/29 07:51:33;;;;;;;12.93;8.18;;;;;;;21.34;47.05;99814.31;4345725;32;34221;-84
2023/09/29 07:54:01;;;;;;;14.50;7.15;;;;;;;21.71;46.50;99826.72;4345494;33;34322;-89
2023/09/29 07:56:29;;;;;;;13.18;7.60;;;;;;;21.52;47.26;99818.34;4345611;33;33306;-89
2023/09/29 07:58:58;;;;;;;13.50;7.32;;;;;;;21.91;47.56;99812.22;4345121;32;33610;-89
2023/09/29 08:01:25;;;;;;;12.45;7.32;;;;;;;22.21;46.00;99822.06;4356950;32;34248;-89
2023/09/29 08:03:53;;;;;;;12.18;7.65;;;;;;;22.05;45.87;99818.91;4357864;32;34963;-89
2023/09/29 08:06:22;;;;;;;16.27;7.30;;;;;;;22.19;45.58;99815.09;4356234;32;33494;-89
2023/09/29 08:08:49;;;;;;;16.00;8.20;;;;;;;22.36;44.98;99815.56;4360081;32;33707;-89
2023/09/29 08:11:17;;;;;;;11.18;7.25;;;;;;;22.57;45.13;99811.47;4360346;32;34729;-86
2023/09/29 08:13:46;;;;;;;12.60;7.30;;;;;;;22.64;43.42;99823.63;4360264;32;34379;-86
2023/09/29 08:16:15;;;;;;;13.48;6.45;;;;;;;22.59;43.57;99820.25;4356025;32;34444;-87
2023/09/29 08:18:43;;;;;;;12.02;6.80;;;;;;;22.81;44.23;99816.13;4345254;33;34108;-86
2023/09/29 08:21:10;;;;;;;13.52;7.60;;;;;;;22.80;43.53;99821.44;4345592;33;33730;-88
2023/09/29 08:23:39;;;;;;;25.77;8.43;;;;;;;23.24;42.72;99811.47;4345324;33;34329;-89
2023/09/29 08:26:08;;;;;;;13.95;7.53;;;;;;;23.17;42.91;99816.03;4345626;33;33690;-86
2023/09/29 08:28:35;;;;;;;12.23;6.78;;;;;;;23.25;42.19;99806.09;4352888;32;33674;-87
2023/09/29 08:31:03;;;;;;;22.42;7.68;;;;;;;23.13;43.16;99817.03;4360110;32;34548;-87
2023/09/29 08:33:32;;;;;;;11.95;7.12;;;;;;;23.15;42.69;99817.87;4360232;32;34346;-86
2023/09/29 08:36:16;;;;;;;17.97;7.90;;;;;;;22.92;44.15;99815.00;4359796;32;33755;-85
2023/09/29 08:38:44;;;;;;;13.60;6.82;;;;;;;22.91;42.37;99821.16;4346250;32;33919;-87
2023/09/29 08:41:12;;;;;;;12.35;7.10;;;;;;;23.35;42.79;99813.78;4353725;32;34170;-90
2023/09/29 08:43:39;;;;;;;15.15;8.60;;;;;;;23.23;43.19;99807.94;4360835;32;35121;-86
2023/09/29 08:46:16;;;;;;;15.00;8.15;;;;;;;23.59;42.43;99813.06;4345191;33;32882;-84
2023/09/29 08:48:45;;;;;;;12.18;7.70;;;;;;;23.66;42.64;99813.75;4345096;33;33796;-89
2023/09/29 08:51:15;;;;;;;13.25;7.45;;;;;;;23.57;44.54;99809.59;4344936;33;34287;-87
2023/09/29 08:53:44;;;;;;;16.23;8.18;;;;;;;23.64;43.66;99813.81;4356103;32;33983;-87
2023/09/29 08:56:15;;;;;;;14.07;7.70;;;;;;;23.95;41.94;99802.28;4347357;32;33859;-86
2023/09/29 08:58:43;;;;;;;13.77;8.00;;;;;;;23.95;42.72;99811.09;4359339;32;33632;-88
2023/09/29 09:01:10;;;;;;;13.10;7.95;;;;;;;24.12;41.46;99814.97;4346047;32;34788;-88
2023/09/29 09:03:38;;;;;;;19.65;7.85;;;;;;;23.91;42.50;99813.91;4345019;32;34035;-84
2023/09/29 09:06:25;;;;;;;21.40;8.13;;;;;;;23.99;42.83;99812.72;4350478;32;33721;-86
2023/09/29 09:08:55;;;;;;;11.93;7.37;;;;;;;24.06;42.27;99817.84;4344657;33;33683;-88
2023/09/29 09:11:23;;;;;;;14.25;8.30;;;;;;;24.30;41.80;99818.81;4344943;33;34105;-88
2023/09/29 09:14:04;;;;;;;18.05;8.05;;;;;;;24.00;41.92;99814.44;4347085;33;34038;-87
2023/09/29 09:16:32;;;;;;;15.88;8.07;;;;;;;24.40;40.91;99818.50;4346711;33;33338;-88
2023/09/29 09:19:13;;;;;;;12.70;7.62;;;;;;;24.14;41.88;99821.97;4346753;33;33529;-87
2023/09/29 09:21:43;;;;;;;14.93;8.07;;;;;;;24.43;41.73;99812.22;4346636;33;35107;-87
2023/09/29 09:24:20;;;;;;;16.58;7.40;;;;;;;24.46;42.97;99812.09;4346607;33;33757;-87
2023/09/29 09:26:49;;;;;;;13.00;8.15;;;;;;;24.27;42.71;99820.63;4346728;33;33198;-86
2023/09/29 09:29:17;;;;;;;12.27;7.55;;;;;;;24.61;42.22;99818.69;4346631;33;34021;-86
2023/09/29 09:31:46;;;;;;;10.52;7.75;;;;;;;24.62;41.41;99815.97;4345348;33;33756;-86
2023/09/29 09:38:19;;;;;;;13.57;8.00;;;;;;;24.85;39.63;99814.28;4346564;33;34349;-86
2023/09/29 09:40:49;;;;;;;18.98;7.82;;;;;;;24.79;40.23;99810.09;4357405;32;33626;-86
2023/09/29 09:43:18;;;;;;;12.05;8.40;;;;;;;24.78;39.88;99807.50;4346517;33;35028;-86
2023/09/29 09:45:49;;;;;;;15.88;7.50;;;;;;;24.82;40.26;99807.34;4346491;33;33892;-87
2023/09/29 09:48:18;;;;;;;15.30;7.32;;;;;;;24.92;39.18;99813.16;4345156;32;31942;-86
2023/09/29 09:50:47;;;;;;;13.25;7.07;;;;;;;24.95;41.23;99805.97;4350904;32;34018;-91
2023/09/29 09:53:20;;;;;;;12.80;6.82;;;;;;;24.80;40.17;99800.34;4358628;32;34739;-87
2023/09/29 09:56:24;;;;;;;14.02;7.45;;;;;;;25.09;40.56;99801.94;4360963;32;34338;-86
2023/09/29 09:58:52;;;;;;;15.57;7.12;;;;;;;25.18;40.03;99802.50;4314181;33;33253;-86
2023/09/29 10:01:21;;;;;;;18.25;7.47;;;;;;;25.13;40.23;99793.84;4348792;32;34161;-86
2023/09/29 10:03:50;;;;;;;14.90;7.65;;;;;;;25.37;39.43;99792.06;4360081;32;34160;-86
2023/09/29 10:06:20;;;;;;;14.07;7.22;;;;;;;25.44;40.24;99788.25;4360112;32;34199;-86
2023/09/29 10:08:58;;;;;;;13.52;6.75;;;;;;;25.83;38.94;99789.44;4361224;32;33865;-86
2023/09/29 10:11:28;;;;;;;15.82;7.68;;;;;;;25.59;38.42;99792.09;4359929;32;34569;-86
2023/09/29 10:14:07;;;;;;;16.12;7.10;;;;;;;25.80;38.68;99784.25;4360870;32;34294;-85
2023/09/29 10:16:35;;;;;;;14.18;6.65;;;;;;;25.83;38.16;99781.47;4359703;32;34982;-86
2023/09/29 10:19:11;;;;;;;17.60;7.35;;;;;;;25.68;37.92;99781.13;4359728;32;34009;-87
2023/09/29 10:21:48;;;;;;;15.85;7.22;;;;;;;25.41;38.87;99788.34;4360714;32;33799;-86
2023/09/29 10:24:29;;;;;;;16.33;7.55;;;;;;;25.54;40.03;99783.47;4359920;32;34375;-86
2023/09/29 10:27:04;;;;;;;24.33;7.87;;;;;;;25.28;38.88;99784.47;4360957;32;33864;-87
2023/09/29 10:29:37;;;;;;;14.90;7.47;;;;;;;25.78;38.82;99778.09;4359834;32;34456;-86
2023/09/29 10:32:14;;;;;;;10.98;7.37;;;;;;;25.94;37.64;99781.91;4359818;32;34642;-86
2023/09/29 10:34:42;;;;;;;16.25;7.28;;;;;;;25.58;38.08;99777.09;4361250;32;35253;-87
2023/09/29 10:37:10;;;;;;;16.12;7.07;;;;;;;25.72;40.15;99774.78;4360857;32;34399;-85
2023/09/29 10:39:39;;;;;;;14.57;7.22;;;;;;;25.89;39.42;99779.44;4360956;32;33839;-86
2023/09/29 10:42:12;;;;;;;11.30;7.37;;;;;;;26.08;37.06;99781.34;4360991;32;33949;-87
2023/09/29 10:44:56;;;;;;;11.30;7.05;;;;;;;25.98;40.01;99772.00;4360785;32;33713;-86
2023/09/29 10:47:35;;;;;;;13.45;6.70;;;;;;;25.98;39.77;99780.84;4359289;32;34060;-86
2023/09/29 10:50:06;;;;;;;14.90;7.03;;;;;;;25.92;39.46;99767.84;4361011;32;33734;-86
2023/09/29 10:52:33;;;;;;;11.95;7.20;;;;;;;26.12;38.00;99772.31;4359834;32;33508;-86
2023/09/29 10:55:04;;;;;;;12.50;6.57;;;;;;;26.24;38.41;99760.31;4360553;32;34634;-86
2023/09/29 10:57:33;;;;;;;10.02;6.72;;;;;;;26.35;37.52;99766.03;4360904;32;35225;-86
2023/09/29 11:00:01;;;;;;;14.13;6.50;;;;;;;26.55;35.46;99762.56;4360778;32;33693;-87
2023/09/29 11:02:32;;;;;;;15.57;6.80;;;;;;;26.37;40.49;99757.06;4360506;32;33823;-87
2023/09/29 11:05:04;;;;;;;17.35;7.05;;;;;;;26.47;36.40;99746.94;4359487;32;33428;-86
2023/09/29 11:07:51;;;;;;;15.52;6.53;;;;;;;26.59;37.37;99743.72;4360661;32;35081;-86
2023/09/29 11:10:19;;;;;;;12.23;6.78;;;;;;;26.76;35.86;99750.13;4359388;32;33782;-87
2023/09/29 11:12:48;;;;;;;10.95;6.03;;;;;;;26.63;37.42;99745.34;4359613;32;33657;-87
2023/09/29 11:15:17;;;;;;;12.57;5.93;;;;;;;26.79;36.78;99731.38;4359407;32;33456;-85
2023/09/29 11:17:50;;;;;;;11.63;5.97;;;;;;;26.97;34.51;99733.16;4359522;32;34752;-86
2023/09/29 11:22:59;;;;;;;8.80;5.12;;;;;;;27.07;35.89;99730.97;4361066;32;33571;-86
2023/09/29 11:25:27;;;;;;;9.90;5.57;;;;;;;27.21;33.94;99722.38;4360790;32;34067;-85
2023/09/29 11:27:55;;;;;;;11.02;5.28;;;;;;;27.08;31.80;99722.91;4360875;32;33883;-87
2023/09/29 11:30:24;;;;;;;14.18;4.82;;;;;;;26.85;32.91;99725.75;4360576;32;33341;-86
2023/09/29 11:32:53;;;;;;;9.70;5.25;;;;;;;26.97;33.80;99727.00;4358406;32;34006;-86
2023/09/29 11:35:21;;;;;;;9.80;4.80;;;;;;;26.94;31.65;99720.03;4359452;32;33696;-87
2023/09/29 11:37:49;;;;;;;11.43;5.10;;;;;;;26.99;33.65;99715.34;4360509;32;34233;-86
2023/09/29 11:40:16;;;;;;;9.82;6.05;;;;;;;26.75;34.09;99714.69;4360367;32;34429;-86
2023/09/29 11:42:45;;;;;;;14.20;5.72;;;;;;;27.04;32.09;99716.00;4360522;32;33965;-86
2023/09/29 11:45:13;;;;;;;10.25;5.40;;;;;;;27.20;32.08;99704.66;4360516;32;34051;-87